sensor_id;sensor_type;location;lat;lon;timestamp;temperature;humidity
15298;DHT22;7750;48.796;9.026;2023-02-28T00:02:48;2.50;53.40
15298;DHT22;7750;48.796;9.026;2023-02-28T00:07:50;2.50;53.60
15298;DHT22;7750;48.796;9.026;2023-02-28T00:12:52;2.40;53.70
15298;DHT22;7750;48.796;9.026;2023-02-28T00:17:53;2.40;53.80
15298;DHT22;7750;48.796;9.026;2023-02-28T00:22:54;2.40;53.80
15298;DHT22;7750;48.796;9.026;2023-02-28T00:27:55;2.30;53.90
15298;DHT22;7750;48.796;9.026;2023-02-28T00:32:56;2.30;54.00
15298;DHT22;7750;48.796;9.026;2023-02-28T00:37:56;2.20;54.00
15298;DHT22;7750;48.796;9.026;2023-02-28T00:42:57;2.20;54.20
15298;DHT22;7750;48.796;9.026;2023-02-28T00:52:59;2.10;53.90
15298;DHT22;7750;48.796;9.026;2023-02-28T00:57:59;2.10;54.60
15298;DHT22;7750;48.796;9.026;2023-02-28T01:03:00;2.00;54.70
15298;DHT22;7750;48.796;9.026;2023-02-28T01:08:00;2.10;55.40
15298;DHT22;7750;48.796;9.026;2023-02-28T01:13:01;2.00;54.90
15298;DHT22;7750;48.796;9.026;2023-02-28T01:18:02;2.00;54.90
15298;DHT22;7750;48.796;9.026;2023-02-28T01:23:02;2.00;55.00
15298;DHT22;7750;48.796;9.026;2023-02-28T01:28:04;2.00;55.20
15298;DHT22;7750;48.796;9.026;2023-02-28T01:33:04;1.90;55.40
15298;DHT22;7750;48.796;9.026;2023-02-28T01:43:29;1.80;55.40
15298;DHT22;7750;48.796;9.026;2023-02-28T01:48:32;1.80;55.80
15298;DHT22;7750;48.796;9.026;2023-02-28T01:53:38;1.80;55.70
15298;DHT22;7750;48.796;9.026;2023-02-28T01:58:40;1.80;56.40
15298;DHT22;7750;48.796;9.026;2023-02-28T02:03:41;1.80;56.00
15298;DHT22;7750;48.796;9.026;2023-02-28T02:08:41;1.70;56.00
15298;DHT22;7750;48.796;9.026;2023-02-28T02:35:08;1.60;56.70
15298;DHT22;7750;48.796;9.026;2023-02-28T02:40:12;1.60;56.60
15298;DHT22;7750;48.796;9.026;2023-02-28T02:50:41;1.60;57.00
15298;DHT22;7750;48.796;9.026;2023-02-28T02:55:46;1.60;57.20
15298;DHT22;7750;48.796;9.026;2023-02-28T03:00:52;1.70;57.40
15298;DHT22;7750;48.796;9.026;2023-02-28T03:05:54;1.70;57.50
15298;DHT22;7750;48.796;9.026;2023-02-28T03:11:05;1.70;57.50
15298;DHT22;7750;48.796;9.026;2023-02-28T03:26:42;1.90;58.10
15298;DHT22;7750;48.796;9.026;2023-02-28T03:31:53;1.90;58.20
15298;DHT22;7750;48.796;9.026;2023-02-28T03:37:02;1.90;58.10
15298;DHT22;7750;48.796;9.026;2023-02-28T03:42:08;1.90;58.30
15298;DHT22;7750;48.796;9.026;2023-02-28T03:47:21;1.90;58.20
15298;DHT22;7750;48.796;9.026;2023-02-28T03:52:27;1.90;58.90
15298;DHT22;7750;48.796;9.026;2023-02-28T03:57:44;2.00;58.70
15298;DHT22;7750;48.796;9.026;2023-02-28T04:02:51;2.00;58.90
15298;DHT22;7750;48.796;9.026;2023-02-28T04:07:53;2.00;59.00
15298;DHT22;7750;48.796;9.026;2023-02-28T04:12:54;2.00;59.00
15298;DHT22;7750;48.796;9.026;2023-02-28T04:17:55;2.10;59.00
15298;DHT22;7750;48.796;9.026;2023-02-28T04:22:55;2.10;59.10
15298;DHT22;7750;48.796;9.026;2023-02-28T04:27:56;2.10;59.10
15298;DHT22;7750;48.796;9.026;2023-02-28T04:32:56;2.10;59.20
15298;DHT22;7750;48.796;9.026;2023-02-28T04:37:57;2.10;59.30
15298;DHT22;7750;48.796;9.026;2023-02-28T04:42:58;2.10;59.50
15298;DHT22;7750;48.796;9.026;2023-02-28T04:47:58;2.10;59.40
15298;DHT22;7750;48.796;9.026;2023-02-28T04:52:59;2.20;59.30
15298;DHT22;7750;48.796;9.026;2023-02-28T04:58:00;2.20;59.40
15298;DHT22;7750;48.796;9.026;2023-02-28T05:03:00;2.20;59.40
15298;DHT22;7750;48.796;9.026;2023-02-28T05:08:01;2.10;59.90
15298;DHT22;7750;48.796;9.026;2023-02-28T05:13:04;2.20;59.90
15298;DHT22;7750;48.796;9.026;2023-02-28T05:18:05;2.20;59.90
15298;DHT22;7750;48.796;9.026;2023-02-28T05:23:05;2.10;60.30
15298;DHT22;7750;48.796;9.026;2023-02-28T05:28:06;2.10;60.10
15298;DHT22;7750;48.796;9.026;2023-02-28T05:33:11;2.20;60.30
15298;DHT22;7750;48.796;9.026;2023-02-28T05:38:12;2.20;60.40
15298;DHT22;7750;48.796;9.026;2023-02-28T05:43:12;2.20;60.70
15298;DHT22;7750;48.796;9.026;2023-02-28T05:48:13;2.20;61.50
15298;DHT22;7750;48.796;9.026;2023-02-28T05:53:13;2.20;60.70
15298;DHT22;7750;48.796;9.026;2023-02-28T05:58:14;2.20;60.60
15298;DHT22;7750;48.796;9.026;2023-02-28T06:03:15;2.20;60.70
15298;DHT22;7750;48.796;9.026;2023-02-28T06:08:15;2.20;60.50
15298;DHT22;7750;48.796;9.026;2023-02-28T06:13:16;2.20;60.60
15298;DHT22;7750;48.796;9.026;2023-02-28T06:18:17;2.20;60.70
15298;DHT22;7750;48.796;9.026;2023-02-28T06:23:17;2.30;61.30
15298;DHT22;7750;48.796;9.026;2023-02-28T06:28:18;2.20;61.10
15298;DHT22;7750;48.796;9.026;2023-02-28T06:33:19;2.20;61.10
15298;DHT22;7750;48.796;9.026;2023-02-28T06:38:19;2.30;61.20
15298;DHT22;7750;48.796;9.026;2023-02-28T06:43:20;2.20;61.20
15298;DHT22;7750;48.796;9.026;2023-02-28T06:48:21;2.20;61.40
15298;DHT22;7750;48.796;9.026;2023-02-28T06:53:21;2.30;61.40
15298;DHT22;7750;48.796;9.026;2023-02-28T06:58:22;2.30;62.30
15298;DHT22;7750;48.796;9.026;2023-02-28T07:03:23;2.30;61.60
15298;DHT22;7750;48.796;9.026;2023-02-28T07:08:24;2.30;61.60
15298;DHT22;7750;48.796;9.026;2023-02-28T07:13:25;2.30;61.60
15298;DHT22;7750;48.796;9.026;2023-02-28T07:18:27;2.30;61.40
15298;DHT22;7750;48.796;9.026;2023-02-28T07:23:27;2.30;61.40
15298;DHT22;7750;48.796;9.026;2023-02-28T07:28:28;2.40;61.50
15298;DHT22;7750;48.796;9.026;2023-02-28T07:33:29;2.40;61.80
15298;DHT22;7750;48.796;9.026;2023-02-28T07:38:29;2.40;61.60
15298;DHT22;7750;48.796;9.026;2023-02-28T07:43:34;2.40;62.30
15298;DHT22;7750;48.796;9.026;2023-02-28T07:48:35;2.50;61.90
15298;DHT22;7750;48.796;9.026;2023-02-28T07:53:35;2.50;61.50
15298;DHT22;7750;48.796;9.026;2023-02-28T07:58:36;2.60;61.40
15298;DHT22;7750;48.796;9.026;2023-02-28T08:03:37;2.60;61.80
15298;DHT22;7750;48.796;9.026;2023-02-28T08:08:38;2.60;61.40
15298;DHT22;7750;48.796;9.026;2023-02-28T08:13:39;2.60;61.70
15298;DHT22;7750;48.796;9.026;2023-02-28T08:18:39;2.70;61.50
15298;DHT22;7750;48.796;9.026;2023-02-28T08:23:40;2.70;61.40
15298;DHT22;7750;48.796;9.026;2023-02-28T08:28:41;2.70;61.30
15298;DHT22;7750;48.796;9.026;2023-02-28T08:33:42;2.70;61.40
15298;DHT22;7750;48.796;9.026;2023-02-28T08:38:43;2.80;61.40
15298;DHT22;7750;48.796;9.026;2023-02-28T08:43:44;2.80;61.70
15298;DHT22;7750;48.796;9.026;2023-02-28T08:48:44;2.90;61.70
15298;DHT22;7750;48.796;9.026;2023-02-28T08:53:45;2.90;61.70
15298;DHT22;7750;48.796;9.026;2023-02-28T08:58:47;2.90;61.60
15298;DHT22;7750;48.796;9.026;2023-02-28T09:03:49;3.00;61.40
15298;DHT22;7750;48.796;9.026;2023-02-28T09:08:50;3.00;61.30
15298;DHT22;7750;48.796;9.026;2023-02-28T09:13:51;3.10;61.60
15298;DHT22;7750;48.796;9.026;2023-02-28T09:18:52;3.10;61.30
15298;DHT22;7750;48.796;9.026;2023-02-28T09:23:53;3.20;61.50
15298;DHT22;7750;48.796;9.026;2023-02-28T09:28:54;3.20;61.90
15298;DHT22;7750;48.796;9.026;2023-02-28T09:33:56;3.20;61.30
15298;DHT22;7750;48.796;9.026;2023-02-28T09:38:57;3.30;61.30
15298;DHT22;7750;48.796;9.026;2023-02-28T09:44:00;3.40;62.10
15298;DHT22;7750;48.796;9.026;2023-02-28T09:49:08;3.50;61.20
15298;DHT22;7750;48.796;9.026;2023-02-28T09:54:15;3.60;61.20
15298;DHT22;7750;48.796;9.026;2023-02-28T09:59:34;3.60;61.00
15298;DHT22;7750;48.796;9.026;2023-02-28T10:04:44;3.80;61.00
15298;DHT22;7750;48.796;9.026;2023-02-28T10:09:55;3.90;61.50
15298;DHT22;7750;48.796;9.026;2023-02-28T10:14:59;4.00;60.50
15298;DHT22;7750;48.796;9.026;2023-02-28T10:20:20;4.10;60.00
15298;DHT22;7750;48.796;9.026;2023-02-28T10:25:28;4.20;59.80
15298;DHT22;7750;48.796;9.026;2023-02-28T10:30:35;4.30;59.70
15298;DHT22;7750;48.796;9.026;2023-02-28T10:35:44;4.30;59.50
15298;DHT22;7750;48.796;9.026;2023-02-28T10:40:45;4.50;59.50
15298;DHT22;7750;48.796;9.026;2023-02-28T10:46:02;4.60;59.50
15298;DHT22;7750;48.796;9.026;2023-02-28T10:51:08;4.80;59.10
15298;DHT22;7750;48.796;9.026;2023-02-28T11:06:33;5.10;58.70
15298;DHT22;7750;48.796;9.026;2023-02-28T11:11:44;5.20;58.90
15298;DHT22;7750;48.796;9.026;2023-02-28T11:16:45;5.40;58.80
15298;DHT22;7750;48.796;9.026;2023-02-28T11:21:55;5.50;58.40
15298;DHT22;7750;48.796;9.026;2023-02-28T11:26:57;5.70;58.70
15298;DHT22;7750;48.796;9.026;2023-02-28T11:32:28;6.00;59.10
15298;DHT22;7750;48.796;9.026;2023-02-28T11:37:31;6.30;58.40
15298;DHT22;7750;48.796;9.026;2023-02-28T11:52:56;7.30;57.30
15298;DHT22;7750;48.796;9.026;2023-02-28T11:58:26;7.40;56.90
15298;DHT22;7750;48.796;9.026;2023-02-28T12:08:51;7.70;56.80
15298;DHT22;7750;48.796;9.026;2023-02-28T12:30:19;8.90;56.00
15298;DHT22;7750;48.796;9.026;2023-02-28T12:35:28;9.10;55.60
15298;DHT22;7750;48.796;9.026;2023-02-28T12:40:49;9.40;54.70
15298;DHT22;7750;48.796;9.026;2023-02-28T12:46:01;9.50;54.60
15298;DHT22;7750;48.796;9.026;2023-02-28T12:51:06;9.70;54.30
15298;DHT22;7750;48.796;9.026;2023-02-28T12:56:43;9.90;54.60
15298;DHT22;7750;48.796;9.026;2023-02-28T13:01:56;10.20;53.00
15298;DHT22;7750;48.796;9.026;2023-02-28T13:07:30;10.30;52.70
15298;DHT22;7750;48.796;9.026;2023-02-28T13:12:34;10.40;51.80
15298;DHT22;7750;48.796;9.026;2023-02-28T13:17:35;10.60;53.00
15298;DHT22;7750;48.796;9.026;2023-02-28T13:22:51;10.70;52.80
15298;DHT22;7750;48.796;9.026;2023-02-28T13:27:54;10.80;51.50
15298;DHT22;7750;48.796;9.026;2023-02-28T13:49:47;10.60;50.20
15298;DHT22;7750;48.796;9.026;2023-02-28T13:54:56;10.70;51.20
15298;DHT22;7750;48.796;9.026;2023-02-28T14:16:21;11.10;51.20
15298;DHT22;7750;48.796;9.026;2023-02-28T14:38:33;11.70;48.90
15298;DHT22;7750;48.796;9.026;2023-02-28T14:43:35;11.60;48.30
15298;DHT22;7750;48.796;9.026;2023-02-28T14:53:41;11.60;49.50
15298;DHT22;7750;48.796;9.026;2023-02-28T15:09:46;11.60;48.30
15298;DHT22;7750;48.796;9.026;2023-02-28T17:20:03;9.70;48.60
15298;DHT22;7750;48.796;9.026;2023-02-28T17:56:25;8.00;50.30
15298;DHT22;7750;48.796;9.026;2023-02-28T18:01:26;7.80;50.30
15298;DHT22;7750;48.796;9.026;2023-02-28T18:06:39;7.70;50.70
15298;DHT22;7750;48.796;9.026;2023-02-28T18:11:46;7.70;50.90
15298;DHT22;7750;48.796;9.026;2023-02-28T18:16:50;7.50;50.80
15298;DHT22;7750;48.796;9.026;2023-02-28T18:21:52;7.40;51.00
15298;DHT22;7750;48.796;9.026;2023-02-28T18:26:53;7.30;51.20
15298;DHT22;7750;48.796;9.026;2023-02-28T18:31:55;7.20;51.10
15298;DHT22;7750;48.796;9.026;2023-02-28T18:36:56;7.10;51.40
15298;DHT22;7750;48.796;9.026;2023-02-28T18:41:57;7.10;51.50
15298;DHT22;7750;48.796;9.026;2023-02-28T18:46:58;7.00;51.60
15298;DHT22;7750;48.796;9.026;2023-02-28T18:51:59;7.00;51.80
15298;DHT22;7750;48.796;9.026;2023-02-28T18:56:59;6.90;51.80
15298;DHT22;7750;48.796;9.026;2023-02-28T19:02:00;6.80;52.00
15298;DHT22;7750;48.796;9.026;2023-02-28T19:07:00;6.70;52.00
15298;DHT22;7750;48.796;9.026;2023-02-28T19:12:02;6.70;52.60
15298;DHT22;7750;48.796;9.026;2023-02-28T19:17:02;6.60;52.20
15298;DHT22;7750;48.796;9.026;2023-02-28T19:22:03;6.50;52.30
15298;DHT22;7750;48.796;9.026;2023-02-28T19:27:04;6.40;52.50
15298;DHT22;7750;48.796;9.026;2023-02-28T19:32:04;6.40;52.50
15298;DHT22;7750;48.796;9.026;2023-02-28T19:37:05;6.30;52.70
15298;DHT22;7750;48.796;9.026;2023-02-28T19:42:10;6.20;52.80
15298;DHT22;7750;48.796;9.026;2023-02-28T19:47:12;6.10;52.90
15298;DHT22;7750;48.796;9.026;2023-02-28T19:52:13;6.10;53.00
15298;DHT22;7750;48.796;9.026;2023-02-28T19:57:14;6.00;53.00
15298;DHT22;7750;48.796;9.026;2023-02-28T20:02:17;5.90;53.10
15298;DHT22;7750;48.796;9.026;2023-02-28T20:07:18;5.80;53.80
15298;DHT22;7750;48.796;9.026;2023-02-28T20:12:22;5.80;53.40
15298;DHT22;7750;48.796;9.026;2023-02-28T20:17:23;5.70;54.00
15298;DHT22;7750;48.796;9.026;2023-02-28T20:22:24;5.70;53.50
15298;DHT22;7750;48.796;9.026;2023-02-28T20:27:24;5.60;54.20
15298;DHT22;7750;48.796;9.026;2023-02-28T20:32:25;5.50;53.70
15298;DHT22;7750;48.796;9.026;2023-02-28T20:37:26;5.50;54.40
15298;DHT22;7750;48.796;9.026;2023-02-28T20:42:27;5.40;53.90
15298;DHT22;7750;48.796;9.026;2023-02-28T20:47:28;5.40;54.00
15298;DHT22;7750;48.796;9.026;2023-02-28T20:52:28;5.30;54.60
15298;DHT22;7750;48.796;9.026;2023-02-28T20:57:29;5.20;54.10
15298;DHT22;7750;48.796;9.026;2023-02-28T21:02:30;5.20;54.20
15298;DHT22;7750;48.796;9.026;2023-02-28T21:07:30;5.10;54.30
15298;DHT22;7750;48.796;9.026;2023-02-28T21:12:31;5.00;54.40
15298;DHT22;7750;48.796;9.026;2023-02-28T21:17:31;5.00;54.50
15298;DHT22;7750;48.796;9.026;2023-02-28T21:22:32;5.00;54.70
15298;DHT22;7750;48.796;9.026;2023-02-28T21:27:33;4.90;54.70
15298;DHT22;7750;48.796;9.026;2023-02-28T21:32:34;4.80;54.80
15298;DHT22;7750;48.796;9.026;2023-02-28T21:37:37;4.80;55.50
15298;DHT22;7750;48.796;9.026;2023-02-28T21:42:37;4.70;55.00
15298;DHT22;7750;48.796;9.026;2023-02-28T21:47:38;4.70;55.10
15298;DHT22;7750;48.796;9.026;2023-02-28T21:52:39;4.60;55.60
15298;DHT22;7750;48.796;9.026;2023-02-28T21:57:40;4.60;55.30
15298;DHT22;7750;48.796;9.026;2023-02-28T22:02:41;4.50;55.30
15298;DHT22;7750;48.796;9.026;2023-02-28T22:07:43;4.50;55.40
15298;DHT22;7750;48.796;9.026;2023-02-28T22:12:44;4.50;55.60
15298;DHT22;7750;48.796;9.026;2023-02-28T22:17:44;4.40;55.60
15298;DHT22;7750;48.796;9.026;2023-02-28T22:22:45;4.40;55.70
15298;DHT22;7750;48.796;9.026;2023-02-28T22:27:46;4.30;55.70
15298;DHT22;7750;48.796;9.026;2023-02-28T22:32:46;4.30;55.80
15298;DHT22;7750;48.796;9.026;2023-02-28T22:37:47;4.20;55.80
15298;DHT22;7750;48.796;9.026;2023-02-28T22:42:48;4.20;55.90
15298;DHT22;7750;48.796;9.026;2023-02-28T22:47:48;4.20;56.00
15298;DHT22;7750;48.796;9.026;2023-02-28T22:52:52;4.10;56.10
15298;DHT22;7750;48.796;9.026;2023-02-28T22:57:53;4.10;56.20
15298;DHT22;7750;48.796;9.026;2023-02-28T23:02:53;4.00;56.20
15298;DHT22;7750;48.796;9.026;2023-02-28T23:07:54;4.00;56.30
15298;DHT22;7750;48.796;9.026;2023-02-28T23:12:55;4.00;56.40
15298;DHT22;7750;48.796;9.026;2023-02-28T23:17:55;4.00;56.40
15298;DHT22;7750;48.796;9.026;2023-02-28T23:22:56;4.00;56.50
15298;DHT22;7750;48.796;9.026;2023-02-28T23:27:57;3.90;56.50
15298;DHT22;7750;48.796;9.026;2023-02-28T23:32:58;3.80;56.50
15298;DHT22;7750;48.796;9.026;2023-02-28T23:37:59;3.80;56.60
15298;DHT22;7750;48.796;9.026;2023-02-28T23:42:59;3.70;56.60
15298;DHT22;7750;48.796;9.026;2023-02-28T23:48:00;3.70;56.80
15298;DHT22;7750;48.796;9.026;2023-02-28T23:53:01;3.70;56.80
15298;DHT22;7750;48.796;9.026;2023-02-28T23:58:01;3.60;56.90
